sensor_id;sensor_type;location;lat;lon;timestamp;P1;durP1;ratioP1;P2;durP2;ratioP2
6517;SDS011;3292;48.944;9.240;2023-07-13T00:01:58;2.10;;;1.83;;
6517;SDS011;3292;48.944;9.240;2023-07-13T00:04:28;2.73;;;2.00;;
6517;SDS011;3292;48.944;9.240;2023-07-13T00:06:55;5.07;;;1.87;;
6517;SDS011;3292;48.944;9.240;2023-07-13T00:09:24;2.37;;;1.70;;
6517;SDS011;3292;48.944;9.240;2023-07-13T00:11:53;5.37;;;2.00;;
6517;SDS011;3292;48.944;9.240;2023-07-13T00:14:22;3.10;;;1.93;;
6517;SDS011;3292;48.944;9.240;2023-07-13T00:16:49;3.23;;;2.07;;
6517;SDS011;3292;48.944;9.240;2023-07-13T00:19:19;3.50;;;2.00;;
6517;SDS011;3292;48.944;9.240;2023-07-13T00:21:46;2.50;;;1.83;;
6517;SDS011;3292;48.944;9.240;2023-07-13T00:24:17;2.67;;;1.80;;
6517;SDS011;3292;48.944;9.240;2023-07-13T00:26:49;3.20;;;1.73;;
6517;SDS011;3292;48.944;9.240;2023-07-13T00:29:18;6.07;;;2.00;;
6517;SDS011;3292;48.944;9.240;2023-07-13T00:31:49;2.90;;;1.90;;
6517;SDS011;3292;48.944;9.240;2023-07-13T00:34:18;2.13;;;1.80;;
6517;SDS011;3292;48.944;9.240;2023-07-13T00:36:49;3.20;;;2.10;;
6517;SDS011;3292;48.944;9.240;2023-07-13T00:39:16;4.47;;;1.77;;
6517;SDS011;3292;48.944;9.240;2023-07-13T00:41:43;3.37;;;1.90;;
6517;SDS011;3292;48.944;9.240;2023-07-13T00:44:11;5.00;;;2.00;;
6517;SDS011;3292;48.944;9.240;2023-07-13T00:46:40;2.20;;;1.80;;
6517;SDS011;3292;48.944;9.240;2023-07-13T00:49:08;2.33;;;1.63;;
6517;SDS011;3292;48.944;9.240;2023-07-13T00:51:40;2.87;;;1.87;;
6517;SDS011;3292;48.944;9.240;2023-07-13T00:54:17;3.20;;;1.73;;
6517;SDS011;3292;48.944;9.240;2023-07-13T00:56:47;2.57;;;1.80;;
6517;SDS011;3292;48.944;9.240;2023-07-13T00:59:20;2.03;;;1.70;;
6517;SDS011;3292;48.944;9.240;2023-07-13T01:01:49;2.33;;;1.67;;
6517;SDS011;3292;48.944;9.240;2023-07-13T01:04:16;4.37;;;2.13;;
6517;SDS011;3292;48.944;9.240;2023-07-13T01:06:46;2.43;;;1.80;;
6517;SDS011;3292;48.944;9.240;2023-07-13T01:09:14;2.50;;;1.70;;
6517;SDS011;3292;48.944;9.240;2023-07-13T01:11:42;1.93;;;1.70;;
6517;SDS011;3292;48.944;9.240;2023-07-13T01:14:11;2.83;;;1.60;;
6517;SDS011;3292;48.944;9.240;2023-07-13T01:16:49;4.23;;;1.70;;
6517;SDS011;3292;48.944;9.240;2023-07-13T01:19:21;2.70;;;1.67;;
6517;SDS011;3292;48.944;9.240;2023-07-13T01:22:02;5.23;;;1.77;;
6517;SDS011;3292;48.944;9.240;2023-07-13T01:24:33;3.67;;;1.80;;
6517;SDS011;3292;48.944;9.240;2023-07-13T01:27:01;3.13;;;2.20;;
6517;SDS011;3292;48.944;9.240;2023-07-13T01:29:34;1.90;;;1.63;;
6517;SDS011;3292;48.944;9.240;2023-07-13T01:32:07;3.43;;;1.90;;
6517;SDS011;3292;48.944;9.240;2023-07-13T01:34:34;3.27;;;2.13;;
6517;SDS011;3292;48.944;9.240;2023-07-13T01:37:13;2.67;;;1.80;;
6517;SDS011;3292;48.944;9.240;2023-07-13T01:39:40;4.10;;;2.00;;
6517;SDS011;3292;48.944;9.240;2023-07-13T01:42:07;2.80;;;1.60;;
6517;SDS011;3292;48.944;9.240;2023-07-13T01:44:40;2.90;;;1.93;;
6517;SDS011;3292;48.944;9.240;2023-07-13T01:47:07;3.63;;;2.17;;
6517;SDS011;3292;48.944;9.240;2023-07-13T01:49:34;3.23;;;2.10;;
6517;SDS011;3292;48.944;9.240;2023-07-13T01:52:01;2.93;;;1.90;;
6517;SDS011;3292;48.944;9.240;2023-07-13T01:54:30;4.40;;;1.73;;
6517;SDS011;3292;48.944;9.240;2023-07-13T01:56:58;3.83;;;1.77;;
6517;SDS011;3292;48.944;9.240;2023-07-13T01:59:25;2.20;;;1.73;;
6517;SDS011;3292;48.944;9.240;2023-07-13T02:02:02;5.17;;;1.73;;
6517;SDS011;3292;48.944;9.240;2023-07-13T02:04:34;3.10;;;1.80;;
6517;SDS011;3292;48.944;9.240;2023-07-13T02:07:05;3.03;;;1.73;;
6517;SDS011;3292;48.944;9.240;2023-07-13T02:09:35;5.27;;;2.00;;
6517;SDS011;3292;48.944;9.240;2023-07-13T02:12:06;1.97;;;1.77;;
6517;SDS011;3292;48.944;9.240;2023-07-13T02:14:38;4.50;;;1.90;;
6517;SDS011;3292;48.944;9.240;2023-07-13T02:17:09;3.27;;;1.70;;
6517;SDS011;3292;48.944;9.240;2023-07-13T02:19:36;2.27;;;1.87;;
6517;SDS011;3292;48.944;9.240;2023-07-13T02:22:03;4.13;;;1.70;;
6517;SDS011;3292;48.944;9.240;2023-07-13T02:24:30;3.00;;;1.97;;
6517;SDS011;3292;48.944;9.240;2023-07-13T02:27:06;2.33;;;1.90;;
6517;SDS011;3292;48.944;9.240;2023-07-13T02:29:33;5.70;;;2.20;;
6517;SDS011;3292;48.944;9.240;2023-07-13T02:32:10;3.13;;;1.83;;
6517;SDS011;3292;48.944;9.240;2023-07-13T02:34:38;3.47;;;2.00;;
6517;SDS011;3292;48.944;9.240;2023-07-13T02:37:13;3.90;;;1.80;;
6517;SDS011;3292;48.944;9.240;2023-07-13T02:39:43;5.03;;;1.83;;
6517;SDS011;3292;48.944;9.240;2023-07-13T02:42:25;2.73;;;1.63;;
6517;SDS011;3292;48.944;9.240;2023-07-13T02:44:51;3.97;;;1.90;;
6517;SDS011;3292;48.944;9.240;2023-07-13T02:47:18;2.33;;;1.90;;
6517;SDS011;3292;48.944;9.240;2023-07-13T02:49:46;3.17;;;1.77;;
6517;SDS011;3292;48.944;9.240;2023-07-13T02:52:17;3.53;;;1.90;;
6517;SDS011;3292;48.944;9.240;2023-07-13T02:54:46;4.60;;;2.17;;
6517;SDS011;3292;48.944;9.240;2023-07-13T02:57:12;4.20;;;1.80;;
6517;SDS011;3292;48.944;9.240;2023-07-13T02:59:40;2.83;;;1.90;;
6517;SDS011;3292;48.944;9.240;2023-07-13T03:02:07;3.47;;;1.93;;
6517;SDS011;3292;48.944;9.240;2023-07-13T03:04:48;4.47;;;2.10;;
6517;SDS011;3292;48.944;9.240;2023-07-13T03:07:19;3.03;;;2.07;;
6517;SDS011;3292;48.944;9.240;2023-07-13T03:09:53;2.63;;;1.87;;
6517;SDS011;3292;48.944;9.240;2023-07-13T03:12:33;2.60;;;1.73;;
6517;SDS011;3292;48.944;9.240;2023-07-13T03:15:04;4.30;;;2.10;;
6517;SDS011;3292;48.944;9.240;2023-07-13T03:17:31;2.77;;;1.80;;
6517;SDS011;3292;48.944;9.240;2023-07-13T03:20:03;1.97;;;1.73;;
6517;SDS011;3292;48.944;9.240;2023-07-13T03:22:37;2.67;;;1.70;;
6517;SDS011;3292;48.944;9.240;2023-07-13T03:25:17;3.00;;;1.90;;
6517;SDS011;3292;48.944;9.240;2023-07-13T03:27:46;2.13;;;1.83;;
6517;SDS011;3292;48.944;9.240;2023-07-13T03:30:15;3.17;;;1.90;;
6517;SDS011;3292;48.944;9.240;2023-07-13T03:32:43;2.87;;;2.00;;
6517;SDS011;3292;48.944;9.240;2023-07-13T03:35:13;2.97;;;2.03;;
6517;SDS011;3292;48.944;9.240;2023-07-13T03:37:44;2.50;;;1.80;;
6517;SDS011;3292;48.944;9.240;2023-07-13T03:40:16;3.03;;;2.10;;
6517;SDS011;3292;48.944;9.240;2023-07-13T03:42:50;2.33;;;1.90;;
6517;SDS011;3292;48.944;9.240;2023-07-13T03:45:18;3.17;;;1.93;;
6517;SDS011;3292;48.944;9.240;2023-07-13T03:47:49;3.77;;;2.47;;
6517;SDS011;3292;48.944;9.240;2023-07-13T03:50:30;3.77;;;2.27;;
6517;SDS011;3292;48.944;9.240;2023-07-13T03:53:04;2.67;;;2.30;;
6517;SDS011;3292;48.944;9.240;2023-07-13T03:55:31;2.60;;;2.40;;
6517;SDS011;3292;48.944;9.240;2023-07-13T03:58:25;5.00;;;2.50;;
6517;SDS011;3292;48.944;9.240;2023-07-13T04:00:58;2.80;;;1.83;;
6517;SDS011;3292;48.944;9.240;2023-07-13T04:03:40;3.70;;;2.10;;
6517;SDS011;3292;48.944;9.240;2023-07-13T04:06:12;2.70;;;2.03;;
6517;SDS011;3292;48.944;9.240;2023-07-13T04:08:46;4.80;;;2.30;;
6517;SDS011;3292;48.944;9.240;2023-07-13T04:11:21;4.93;;;2.30;;
6517;SDS011;3292;48.944;9.240;2023-07-13T04:13:51;4.37;;;2.17;;
6517;SDS011;3292;48.944;9.240;2023-07-13T04:16:33;3.17;;;2.23;;
6517;SDS011;3292;48.944;9.240;2023-07-13T04:19:11;4.97;;;2.23;;
6517;SDS011;3292;48.944;9.240;2023-07-13T04:21:38;2.70;;;2.00;;
6517;SDS011;3292;48.944;9.240;2023-07-13T04:24:12;3.10;;;1.97;;
6517;SDS011;3292;48.944;9.240;2023-07-13T04:26:44;3.07;;;2.37;;
6517;SDS011;3292;48.944;9.240;2023-07-13T04:29:14;3.63;;;1.80;;
6517;SDS011;3292;48.944;9.240;2023-07-13T04:31:47;3.30;;;1.80;;
6517;SDS011;3292;48.944;9.240;2023-07-13T04:34:15;3.43;;;1.73;;
6517;SDS011;3292;48.944;9.240;2023-07-13T04:36:44;3.87;;;2.00;;
6517;SDS011;3292;48.944;9.240;2023-07-13T04:39:27;3.57;;;2.23;;
6517;SDS011;3292;48.944;9.240;2023-07-13T04:41:55;5.10;;;2.23;;
6517;SDS011;3292;48.944;9.240;2023-07-13T04:44:25;8.67;;;2.90;;
6517;SDS011;3292;48.944;9.240;2023-07-13T04:47:00;2.90;;;2.20;;
6517;SDS011;3292;48.944;9.240;2023-07-13T04:49:30;5.23;;;2.53;;
6517;SDS011;3292;48.944;9.240;2023-07-13T04:52:01;9.57;;;2.97;;
6517;SDS011;3292;48.944;9.240;2023-07-13T04:54:34;7.07;;;2.27;;
6517;SDS011;3292;48.944;9.240;2023-07-13T04:57:06;5.53;;;2.50;;
6517;SDS011;3292;48.944;9.240;2023-07-13T04:59:34;5.93;;;2.27;;
6517;SDS011;3292;48.944;9.240;2023-07-13T05:02:16;3.77;;;2.10;;
6517;SDS011;3292;48.944;9.240;2023-07-13T05:04:54;4.70;;;2.30;;
6517;SDS011;3292;48.944;9.240;2023-07-13T05:07:33;4.80;;;2.00;;
6517;SDS011;3292;48.944;9.240;2023-07-13T05:10:07;2.13;;;1.93;;
6517;SDS011;3292;48.944;9.240;2023-07-13T05:12:50;2.77;;;1.90;;
6517;SDS011;3292;48.944;9.240;2023-07-13T05:15:18;4.87;;;2.40;;
6517;SDS011;3292;48.944;9.240;2023-07-13T05:17:48;4.23;;;1.90;;
6517;SDS011;3292;48.944;9.240;2023-07-13T05:20:16;3.60;;;1.90;;
6517;SDS011;3292;48.944;9.240;2023-07-13T05:22:43;5.43;;;2.40;;
6517;SDS011;3292;48.944;9.240;2023-07-13T05:25:11;2.27;;;2.00;;
6517;SDS011;3292;48.944;9.240;2023-07-13T05:27:39;4.60;;;2.10;;
6517;SDS011;3292;48.944;9.240;2023-07-13T05:30:06;4.37;;;2.10;;
6517;SDS011;3292;48.944;9.240;2023-07-13T05:32:35;2.23;;;1.90;;
6517;SDS011;3292;48.944;9.240;2023-07-13T05:35:04;3.27;;;2.10;;
6517;SDS011;3292;48.944;9.240;2023-07-13T05:37:32;6.23;;;2.30;;
6517;SDS011;3292;48.944;9.240;2023-07-13T05:40:10;2.23;;;1.97;;
6517;SDS011;3292;48.944;9.240;2023-07-13T05:42:37;4.87;;;2.00;;
6517;SDS011;3292;48.944;9.240;2023-07-13T05:45:04;4.43;;;2.40;;
6517;SDS011;3292;48.944;9.240;2023-07-13T05:47:31;3.93;;;2.40;;
6517;SDS011;3292;48.944;9.240;2023-07-13T05:50:13;4.23;;;2.20;;
6517;SDS011;3292;48.944;9.240;2023-07-13T05:52:49;4.97;;;2.07;;
6517;SDS011;3292;48.944;9.240;2023-07-13T05:55:22;5.63;;;2.20;;
6517;SDS011;3292;48.944;9.240;2023-07-13T05:57:49;5.87;;;2.30;;
6517;SDS011;3292;48.944;9.240;2023-07-13T06:00:16;2.43;;;2.10;;
6517;SDS011;3292;48.944;9.240;2023-07-13T06:02:43;2.50;;;1.70;;
6517;SDS011;3292;48.944;9.240;2023-07-13T06:05:10;3.40;;;2.00;;
6517;SDS011;3292;48.944;9.240;2023-07-13T06:07:41;10.13;;;2.80;;
6517;SDS011;3292;48.944;9.240;2023-07-13T06:10:11;14.67;;;2.70;;
6517;SDS011;3292;48.944;9.240;2023-07-13T06:12:37;10.00;;;2.70;;
6517;SDS011;3292;48.944;9.240;2023-07-13T06:15:05;12.77;;;2.87;;
6517;SDS011;3292;48.944;9.240;2023-07-13T06:17:33;8.77;;;2.43;;
6517;SDS011;3292;48.944;9.240;2023-07-13T06:19:59;7.63;;;2.30;;
6517;SDS011;3292;48.944;9.240;2023-07-13T06:22:26;7.37;;;2.30;;
6517;SDS011;3292;48.944;9.240;2023-07-13T06:24:54;4.18;;;2.20;;
6517;SDS011;3292;48.944;9.240;2023-07-13T06:27:21;3.53;;;2.10;;
6517;SDS011;3292;48.944;9.240;2023-07-13T06:29:48;6.82;;;1.90;;
6517;SDS011;3292;48.944;9.240;2023-07-13T06:32:15;3.30;;;1.77;;
6517;SDS011;3292;48.944;9.240;2023-07-13T06:34:41;5.43;;;2.10;;
6517;SDS011;3292;48.944;9.240;2023-07-13T06:37:08;8.27;;;2.33;;
6517;SDS011;3292;48.944;9.240;2023-07-13T06:39:35;7.07;;;2.10;;
6517;SDS011;3292;48.944;9.240;2023-07-13T06:42:04;4.40;;;2.13;;
6517;SDS011;3292;48.944;9.240;2023-07-13T06:44:32;5.13;;;2.38;;
6517;SDS011;3292;48.944;9.240;2023-07-13T06:46:58;6.03;;;2.00;;
6517;SDS011;3292;48.944;9.240;2023-07-13T06:49:25;3.88;;;2.20;;
6517;SDS011;3292;48.944;9.240;2023-07-13T06:51:52;4.25;;;1.95;;
6517;SDS011;3292;48.944;9.240;2023-07-13T06:54:19;10.10;;;2.83;;
6517;SDS011;3292;48.944;9.240;2023-07-13T06:56:46;6.35;;;2.50;;
6517;SDS011;3292;48.944;9.240;2023-07-13T06:59:14;4.18;;;2.20;;
6517;SDS011;3292;48.944;9.240;2023-07-13T07:01:40;5.45;;;2.40;;
6517;SDS011;3292;48.944;9.240;2023-07-13T07:04:07;6.43;;;2.20;;
6517;SDS011;3292;48.944;9.240;2023-07-13T07:06:34;3.45;;;2.00;;
6517;SDS011;3292;48.944;9.240;2023-07-13T07:09:01;3.45;;;1.90;;
6517;SDS011;3292;48.944;9.240;2023-07-13T07:11:28;2.25;;;1.80;;
6517;SDS011;3292;48.944;9.240;2023-07-13T07:13:55;2.85;;;1.83;;
6517;SDS011;3292;48.944;9.240;2023-07-13T07:16:24;3.00;;;2.00;;
6517;SDS011;3292;48.944;9.240;2023-07-13T07:18:51;3.30;;;1.80;;
6517;SDS011;3292;48.944;9.240;2023-07-13T07:21:18;2.83;;;1.73;;
6517;SDS011;3292;48.944;9.240;2023-07-13T07:23:47;4.72;;;1.90;;
6517;SDS011;3292;48.944;9.240;2023-07-13T07:26:14;2.47;;;1.70;;
6517;SDS011;3292;48.944;9.240;2023-07-13T07:28:42;2.10;;;1.63;;
6517;SDS011;3292;48.944;9.240;2023-07-13T07:31:12;4.25;;;1.90;;
6517;SDS011;3292;48.944;9.240;2023-07-13T07:33:40;3.72;;;2.03;;
6517;SDS011;3292;48.944;9.240;2023-07-13T07:36:07;4.63;;;1.90;;
6517;SDS011;3292;48.944;9.240;2023-07-13T07:38:34;4.75;;;1.80;;
6517;SDS011;3292;48.944;9.240;2023-07-13T07:41:02;2.83;;;1.80;;
6517;SDS011;3292;48.944;9.240;2023-07-13T07:43:30;3.38;;;1.70;;
6517;SDS011;3292;48.944;9.240;2023-07-13T07:45:57;3.35;;;1.80;;
6517;SDS011;3292;48.944;9.240;2023-07-13T07:48:23;5.15;;;1.75;;
6517;SDS011;3292;48.944;9.240;2023-07-13T07:50:52;6.35;;;2.00;;
6517;SDS011;3292;48.944;9.240;2023-07-13T07:53:18;2.88;;;1.70;;
6517;SDS011;3292;48.944;9.240;2023-07-13T07:55:45;3.38;;;1.55;;
6517;SDS011;3292;48.944;9.240;2023-07-13T07:58:14;5.00;;;1.70;;
6517;SDS011;3292;48.944;9.240;2023-07-13T08:00:41;3.42;;;1.75;;
6517;SDS011;3292;48.944;9.240;2023-07-13T08:03:09;3.63;;;1.40;;
6517;SDS011;3292;48.944;9.240;2023-07-13T08:05:36;2.88;;;1.70;;
6517;SDS011;3292;48.944;9.240;2023-07-13T08:08:04;2.47;;;1.58;;
6517;SDS011;3292;48.944;9.240;2023-07-13T08:10:35;2.92;;;1.50;;
6517;SDS011;3292;48.944;9.240;2023-07-13T08:13:02;4.50;;;1.60;;
6517;SDS011;3292;48.944;9.240;2023-07-13T08:15:29;5.47;;;1.65;;
6517;SDS011;3292;48.944;9.240;2023-07-13T08:17:55;6.30;;;1.83;;
6517;SDS011;3292;48.944;9.240;2023-07-13T08:20:22;2.30;;;1.70;;
6517;SDS011;3292;48.944;9.240;2023-07-13T08:22:49;4.07;;;1.90;;
6517;SDS011;3292;48.944;9.240;2023-07-13T08:25:17;4.38;;;1.73;;
6517;SDS011;3292;48.944;9.240;2023-07-13T08:27:48;3.53;;;1.63;;
6517;SDS011;3292;48.944;9.240;2023-07-13T08:30:14;2.92;;;1.80;;
6517;SDS011;3292;48.944;9.240;2023-07-13T08:32:42;2.88;;;1.85;;
6517;SDS011;3292;48.944;9.240;2023-07-13T08:35:09;3.17;;;1.80;;
6517;SDS011;3292;48.944;9.240;2023-07-13T08:37:36;5.10;;;1.83;;
6517;SDS011;3292;48.944;9.240;2023-07-13T08:40:03;3.88;;;1.90;;
6517;SDS011;3292;48.944;9.240;2023-07-13T08:42:33;5.75;;;1.95;;
6517;SDS011;3292;48.944;9.240;2023-07-13T08:45:06;2.15;;;1.60;;
6517;SDS011;3292;48.944;9.240;2023-07-13T08:47:39;3.30;;;1.80;;
6517;SDS011;3292;48.944;9.240;2023-07-13T08:50:11;3.72;;;1.77;;
6517;SDS011;3292;48.944;9.240;2023-07-13T08:52:41;4.68;;;2.05;;
6517;SDS011;3292;48.944;9.240;2023-07-13T08:55:12;4.85;;;1.88;;
6517;SDS011;3292;48.944;9.240;2023-07-13T08:57:43;4.53;;;1.90;;
6517;SDS011;3292;48.944;9.240;2023-07-13T09:00:14;4.75;;;1.80;;
6517;SDS011;3292;48.944;9.240;2023-07-13T09:02:42;4.18;;;1.90;;
6517;SDS011;3292;48.944;9.240;2023-07-13T09:05:22;5.57;;;1.80;;
6517;SDS011;3292;48.944;9.240;2023-07-13T09:08:00;2.72;;;1.80;;
6517;SDS011;3292;48.944;9.240;2023-07-13T09:10:32;3.33;;;1.98;;
6517;SDS011;3292;48.944;9.240;2023-07-13T09:13:12;2.83;;;1.77;;
6517;SDS011;3292;48.944;9.240;2023-07-13T09:15:48;4.53;;;1.65;;
6517;SDS011;3292;48.944;9.240;2023-07-13T09:18:19;4.40;;;1.80;;
6517;SDS011;3292;48.944;9.240;2023-07-13T09:20:52;2.90;;;1.77;;
6517;SDS011;3292;48.944;9.240;2023-07-13T09:23:23;2.95;;;1.77;;
6517;SDS011;3292;48.944;9.240;2023-07-13T09:25:54;4.28;;;1.80;;
6517;SDS011;3292;48.944;9.240;2023-07-13T09:28:30;4.47;;;1.63;;
6517;SDS011;3292;48.944;9.240;2023-07-13T09:31:04;3.15;;;1.65;;
6517;SDS011;3292;48.944;9.240;2023-07-13T09:33:33;4.15;;;1.80;;
6517;SDS011;3292;48.944;9.240;2023-07-13T09:36:00;3.80;;;1.95;;
6517;SDS011;3292;48.944;9.240;2023-07-13T09:38:27;1.92;;;1.70;;
6517;SDS011;3292;48.944;9.240;2023-07-13T09:41:09;3.65;;;1.52;;
6517;SDS011;3292;48.944;9.240;2023-07-13T09:46:45;2.40;;;1.60;;
6517;SDS011;3292;48.944;9.240;2023-07-13T09:49:13;3.75;;;1.60;;
6517;SDS011;3292;48.944;9.240;2023-07-13T09:51:40;4.28;;;1.70;;
6517;SDS011;3292;48.944;9.240;2023-07-13T09:54:16;2.42;;;1.60;;
6517;SDS011;3292;48.944;9.240;2023-07-13T09:56:45;2.42;;;1.55;;
6517;SDS011;3292;48.944;9.240;2023-07-13T09:59:18;5.53;;;1.60;;
6517;SDS011;3292;48.944;9.240;2023-07-13T10:01:47;3.00;;;1.65;;
6517;SDS011;3292;48.944;9.240;2023-07-13T10:04:16;2.78;;;1.85;;
6517;SDS011;3292;48.944;9.240;2023-07-13T10:06:44;2.80;;;1.60;;
6517;SDS011;3292;48.944;9.240;2023-07-13T10:09:14;3.72;;;1.63;;
6517;SDS011;3292;48.944;9.240;2023-07-13T10:11:42;3.40;;;1.67;;
6517;SDS011;3292;48.944;9.240;2023-07-13T10:14:10;2.75;;;1.67;;
6517;SDS011;3292;48.944;9.240;2023-07-13T10:16:41;2.75;;;1.58;;
6517;SDS011;3292;48.944;9.240;2023-07-13T10:19:12;3.35;;;1.52;;
6517;SDS011;3292;48.944;9.240;2023-07-13T10:21:47;2.83;;;1.88;;
6517;SDS011;3292;48.944;9.240;2023-07-13T10:24:20;3.58;;;1.50;;
6517;SDS011;3292;48.944;9.240;2023-07-13T10:26:52;2.80;;;1.77;;
6517;SDS011;3292;48.944;9.240;2023-07-13T10:29:24;5.20;;;1.80;;
6517;SDS011;3292;48.944;9.240;2023-07-13T10:31:53;2.55;;;1.70;;
6517;SDS011;3292;48.944;9.240;2023-07-13T10:34:23;3.70;;;1.90;;
6517;SDS011;3292;48.944;9.240;2023-07-13T10:36:51;3.55;;;1.60;;
6517;SDS011;3292;48.944;9.240;2023-07-13T10:39:19;3.72;;;1.65;;
6517;SDS011;3292;48.944;9.240;2023-07-13T10:41:50;3.55;;;1.67;;
6517;SDS011;3292;48.944;9.240;2023-07-13T10:44:24;3.83;;;1.80;;
6517;SDS011;3292;48.944;9.240;2023-07-13T10:46:56;5.45;;;1.70;;
6517;SDS011;3292;48.944;9.240;2023-07-13T10:49:27;2.72;;;1.80;;
6517;SDS011;3292;48.944;9.240;2023-07-13T10:51:56;3.53;;;1.90;;
6517;SDS011;3292;48.944;9.240;2023-07-13T10:54:26;4.72;;;1.90;;
6517;SDS011;3292;48.944;9.240;2023-07-13T10:59:43;2.85;;;1.90;;
6517;SDS011;3292;48.944;9.240;2023-07-13T11:02:15;3.53;;;1.65;;
6517;SDS011;3292;48.944;9.240;2023-07-13T11:04:50;3.55;;;1.92;;
6517;SDS011;3292;48.944;9.240;2023-07-13T11:07:20;5.78;;;1.70;;
6517;SDS011;3292;48.944;9.240;2023-07-13T11:09:49;2.83;;;1.40;;
6517;SDS011;3292;48.944;9.240;2023-07-13T11:12:28;3.58;;;1.98;;
6517;SDS011;3292;48.944;9.240;2023-07-13T11:15:10;3.75;;;1.88;;
6517;SDS011;3292;48.944;9.240;2023-07-13T11:17:48;2.60;;;1.52;;
6517;SDS011;3292;48.944;9.240;2023-07-13T11:20:22;2.65;;;1.55;;
6517;SDS011;3292;48.944;9.240;2023-07-13T11:23:15;2.88;;;1.50;;
6517;SDS011;3292;48.944;9.240;2023-07-13T11:25:53;3.75;;;1.50;;
6517;SDS011;3292;48.944;9.240;2023-07-13T11:28:21;3.40;;;1.75;;
6517;SDS011;3292;48.944;9.240;2023-07-13T11:30:59;2.47;;;1.70;;
6517;SDS011;3292;48.944;9.240;2023-07-13T11:33:56;4.10;;;1.70;;
6517;SDS011;3292;48.944;9.240;2023-07-13T11:36:29;4.65;;;1.60;;
6517;SDS011;3292;48.944;9.240;2023-07-13T11:39:00;3.60;;;2.00;;
6517;SDS011;3292;48.944;9.240;2023-07-13T11:41:31;1.90;;;1.60;;
6517;SDS011;3292;48.944;9.240;2023-07-13T11:44:10;2.63;;;1.80;;
6517;SDS011;3292;48.944;9.240;2023-07-13T11:46:43;3.95;;;1.73;;
6517;SDS011;3292;48.944;9.240;2023-07-13T11:49:13;4.82;;;1.75;;
6517;SDS011;3292;48.944;9.240;2023-07-13T11:51:43;5.57;;;1.90;;
6517;SDS011;3292;48.944;9.240;2023-07-13T11:54:14;3.55;;;1.70;;
6517;SDS011;3292;48.944;9.240;2023-07-13T11:56:48;4.00;;;1.80;;
6517;SDS011;3292;48.944;9.240;2023-07-13T11:59:15;3.42;;;2.10;;
6517;SDS011;3292;48.944;9.240;2023-07-13T12:01:44;7.13;;;1.50;;
6517;SDS011;3292;48.944;9.240;2023-07-13T12:04:19;2.72;;;1.80;;
6517;SDS011;3292;48.944;9.240;2023-07-13T12:06:54;3.80;;;1.77;;
6517;SDS011;3292;48.944;9.240;2023-07-13T12:09:21;3.63;;;1.90;;
6517;SDS011;3292;48.944;9.240;2023-07-13T12:11:50;4.20;;;1.83;;
6517;SDS011;3292;48.944;9.240;2023-07-13T12:14:17;2.83;;;1.75;;
6517;SDS011;3292;48.944;9.240;2023-07-13T12:16:46;1.92;;;1.75;;
6517;SDS011;3292;48.944;9.240;2023-07-13T12:19:16;5.43;;;1.63;;
6517;SDS011;3292;48.944;9.240;2023-07-13T12:21:45;5.20;;;1.85;;
6517;SDS011;3292;48.944;9.240;2023-07-13T12:24:15;2.58;;;1.73;;
6517;SDS011;3292;48.944;9.240;2023-07-13T12:26:42;2.90;;;1.60;;
6517;SDS011;3292;48.944;9.240;2023-07-13T12:29:11;3.50;;;1.40;;
6517;SDS011;3292;48.944;9.240;2023-07-13T12:31:43;3.33;;;1.70;;
6517;SDS011;3292;48.944;9.240;2023-07-13T12:34:11;4.63;;;1.70;;
6517;SDS011;3292;48.944;9.240;2023-07-13T12:36:45;4.65;;;1.77;;
6517;SDS011;3292;48.944;9.240;2023-07-13T12:39:16;3.42;;;1.77;;
6517;SDS011;3292;48.944;9.240;2023-07-13T12:41:45;2.88;;;1.73;;
6517;SDS011;3292;48.944;9.240;2023-07-13T12:44:13;5.15;;;1.70;;
6517;SDS011;3292;48.944;9.240;2023-07-13T12:46:51;2.67;;;1.60;;
6517;SDS011;3292;48.944;9.240;2023-07-13T12:49:24;3.22;;;1.80;;
6517;SDS011;3292;48.944;9.240;2023-07-13T12:51:57;3.22;;;1.60;;
6517;SDS011;3292;48.944;9.240;2023-07-13T12:54:27;3.35;;;1.73;;
6517;SDS011;3292;48.944;9.240;2023-07-13T12:56:57;1.83;;;1.60;;
6517;SDS011;3292;48.944;9.240;2023-07-13T12:59:29;3.53;;;1.50;;
6517;SDS011;3292;48.944;9.240;2023-07-13T13:01:58;1.77;;;1.52;;
6517;SDS011;3292;48.944;9.240;2023-07-13T13:04:27;2.83;;;1.50;;
6517;SDS011;3292;48.944;9.240;2023-07-13T13:07:01;3.05;;;1.55;;
6517;SDS011;3292;48.944;9.240;2023-07-13T13:09:32;1.70;;;1.50;;
6517;SDS011;3292;48.944;9.240;2023-07-13T13:12:02;3.60;;;1.85;;
6517;SDS011;3292;48.944;9.240;2023-07-13T13:14:30;3.53;;;1.55;;
6517;SDS011;3292;48.944;9.240;2023-07-13T13:16:57;3.25;;;1.70;;
6517;SDS011;3292;48.944;9.240;2023-07-13T13:19:26;2.50;;;1.60;;
6517;SDS011;3292;48.944;9.240;2023-07-13T13:21:55;4.35;;;1.65;;
6517;SDS011;3292;48.944;9.240;2023-07-13T13:24:23;3.88;;;1.98;;
6517;SDS011;3292;48.944;9.240;2023-07-13T13:26:53;4.88;;;1.73;;
6517;SDS011;3292;48.944;9.240;2023-07-13T13:29:22;4.00;;;1.80;;
6517;SDS011;3292;48.944;9.240;2023-07-13T13:31:50;3.72;;;1.60;;
6517;SDS011;3292;48.944;9.240;2023-07-13T13:34:18;2.28;;;1.80;;
6517;SDS011;3292;48.944;9.240;2023-07-13T13:36:48;4.82;;;1.60;;
6517;SDS011;3292;48.944;9.240;2023-07-13T13:39:18;4.40;;;1.52;;
6517;SDS011;3292;48.944;9.240;2023-07-13T13:41:47;3.15;;;1.58;;
6517;SDS011;3292;48.944;9.240;2023-07-13T13:44:16;1.83;;;1.63;;
6517;SDS011;3292;48.944;9.240;2023-07-13T13:46:44;5.78;;;1.80;;
6517;SDS011;3292;48.944;9.240;2023-07-13T13:49:17;5.82;;;1.98;;
6517;SDS011;3292;48.944;9.240;2023-07-13T13:51:45;7.82;;;1.70;;
6517;SDS011;3292;48.944;9.240;2023-07-13T13:54:13;3.85;;;1.63;;
6517;SDS011;3292;48.944;9.240;2023-07-13T13:56:41;4.57;;;1.63;;
6517;SDS011;3292;48.944;9.240;2023-07-13T13:59:09;3.30;;;1.60;;
6517;SDS011;3292;48.944;9.240;2023-07-13T14:01:37;5.20;;;1.60;;
6517;SDS011;3292;48.944;9.240;2023-07-13T14:04:05;2.83;;;1.55;;
6517;SDS011;3292;48.944;9.240;2023-07-13T14:06:33;4.72;;;1.83;;
6517;SDS011;3292;48.944;9.240;2023-07-13T14:09:00;3.25;;;1.50;;
6517;SDS011;3292;48.944;9.240;2023-07-13T14:11:29;5.15;;;1.85;;
6517;SDS011;3292;48.944;9.240;2023-07-13T14:13:57;1.98;;;1.40;;
6517;SDS011;3292;48.944;9.240;2023-07-13T14:16:26;2.13;;;1.73;;
6517;SDS011;3292;48.944;9.240;2023-07-13T14:18:58;1.50;;;1.40;;
6517;SDS011;3292;48.944;9.240;2023-07-13T14:21:26;2.92;;;1.50;;
6517;SDS011;3292;48.944;9.240;2023-07-13T14:23:54;4.50;;;1.55;;
6517;SDS011;3292;48.944;9.240;2023-07-13T14:26:21;2.75;;;1.67;;
6517;SDS011;3292;48.944;9.240;2023-07-13T14:28:51;4.20;;;1.70;;
6517;SDS011;3292;48.944;9.240;2023-07-13T14:31:21;7.60;;;2.08;;
6517;SDS011;3292;48.944;9.240;2023-07-13T14:33:49;2.80;;;1.67;;
6517;SDS011;3292;48.944;9.240;2023-07-13T14:39:08;3.83;;;1.50;;
6517;SDS011;3292;48.944;9.240;2023-07-13T14:41:38;4.40;;;1.73;;
6517;SDS011;3292;48.944;9.240;2023-07-13T14:44:08;2.78;;;1.40;;
6517;SDS011;3292;48.944;9.240;2023-07-13T14:46:37;2.40;;;1.60;;
6517;SDS011;3292;48.944;9.240;2023-07-13T14:49:05;3.10;;;1.75;;
6517;SDS011;3292;48.944;9.240;2023-07-13T14:51:40;3.00;;;1.80;;
6517;SDS011;3292;48.944;9.240;2023-07-13T14:54:08;5.50;;;1.95;;
6517;SDS011;3292;48.944;9.240;2023-07-13T14:56:39;2.50;;;1.60;;
6517;SDS011;3292;48.944;9.240;2023-07-13T14:59:07;2.25;;;1.70;;
6517;SDS011;3292;48.944;9.240;2023-07-13T15:01:34;5.13;;;1.90;;
6517;SDS011;3292;48.944;9.240;2023-07-13T15:04:02;2.72;;;1.52;;
6517;SDS011;3292;48.944;9.240;2023-07-13T15:06:30;3.60;;;1.70;;
6517;SDS011;3292;48.944;9.240;2023-07-13T15:08:59;3.92;;;1.67;;
6517;SDS011;3292;48.944;9.240;2023-07-13T15:11:26;2.97;;;1.90;;
6517;SDS011;3292;48.944;9.240;2023-07-13T15:13:54;1.88;;;1.50;;
6517;SDS011;3292;48.944;9.240;2023-07-13T15:16:24;4.60;;;1.90;;
6517;SDS011;3292;48.944;9.240;2023-07-13T15:18:53;4.53;;;1.67;;
6517;SDS011;3292;48.944;9.240;2023-07-13T15:21:21;2.50;;;1.80;;
6517;SDS011;3292;48.944;9.240;2023-07-13T15:23:50;3.40;;;1.75;;
6517;SDS011;3292;48.944;9.240;2023-07-13T15:26:19;5.05;;;1.90;;
6517;SDS011;3292;48.944;9.240;2023-07-13T15:28:46;2.15;;;1.77;;
6517;SDS011;3292;48.944;9.240;2023-07-13T15:31:18;2.00;;;1.70;;
6517;SDS011;3292;48.944;9.240;2023-07-13T15:33:48;3.20;;;1.52;;
6517;SDS011;3292;48.944;9.240;2023-07-13T15:36:18;3.05;;;1.73;;
6517;SDS011;3292;48.944;9.240;2023-07-13T15:38:46;2.45;;;1.50;;
6517;SDS011;3292;48.944;9.240;2023-07-13T15:41:16;5.25;;;1.90;;
6517;SDS011;3292;48.944;9.240;2023-07-13T15:43:47;3.40;;;1.50;;